Time;durP1;ratioP1;P1;durP2;ratioP2;P2;SDS_P1;SDS_P2;PMS_P1;PMS_P2;Temp;Humidity;BMP_temperature;BMP_pressure;BME280_temperature;BME280_humidity;BME280_pressure;Samples;Min_cycle;Max_cycle;Signal;HPM_P1;HPM_P2
2022/04/10 00:01:02;;;;;;;1.13;1.13;;;;;;;4.64;85.31;96887.59;5046550;28;20203;-56
2022/04/10 00:03:28;;;;;;;1.37;1.27;;;;;;;4.39;88.17;96889.19;5052101;28;20207;-56
2022/04/10 00:05:55;;;;;;;0.77;0.77;;;;;;;4.32;87.68;96889.69;5054896;28;20206;-55
2022/04/10 00:08:23;;;;;;;1.20;1.20;;;;;;;4.34;87.74;96901.75;5048862;28;20207;-56
2022/04/10 00:10:49;;;;;;;1.17;1.17;;;;;;;4.07;88.50;96894.81;5043677;28;20198;-56
2022/04/10 00:13:16;;;;;;;1.50;1.43;;;;;;;3.99;90.77;96901.38;5044289;28;20634;-55
2022/04/10 00:15:43;;;;;;;0.87;0.87;;;;;;;3.85;90.18;96898.78;5043575;28;20207;-56
2022/04/10 00:18:09;;;;;;;1.00;1.00;;;;;;;3.81;92.72;96902.53;5043266;28;20664;-56
2022/04/10 00:20:36;;;;;;;1.03;0.93;;;;;;;3.76;92.13;96893.28;5044061;28;20208;-55
2022/04/10 00:23:04;;;;;;;1.00;0.93;;;;;;;3.59;92.40;96891.72;5042133;28;20199;-57
2022/04/10 00:25:32;;;;;;;0.90;0.90;;;;;;;3.59;91.67;96894.31;5046150;28;20211;-56
2022/04/10 00:27:58;;;;;;;1.07;1.07;;;;;;;3.48;92.79;96896.75;5055291;28;20265;-56
2022/04/10 00:30:25;;;;;;;0.77;0.77;;;;;;;3.43;91.31;96896.22;5056321;28;20207;-56
2022/04/10 00:32:52;;;;;;;0.80;0.80;;;;;;;3.20;90.54;96894.13;5046957;28;20222;-57
2022/04/10 00:35:19;;;;;;;0.80;0.80;;;;;;;3.04;90.80;96896.84;5062935;28;20202;-56
2022/04/10 00:37:45;;;;;;;1.07;1.07;;;;;;;2.85;90.57;96896.22;5066662;28;20225;-56
2022/04/10 00:40:12;;;;;;;0.80;0.80;;;;;;;2.66;91.87;96896.44;5066066;28;20211;-55
2022/04/10 00:42:46;;;;;;;1.77;0.90;;;;;;;2.65;93.16;96902.63;5052873;28;20235;-56
2022/04/10 00:45:13;;;;;;;0.80;0.80;;;;;;;2.58;93.42;96903.91;5054752;28;20209;-56
2022/04/10 00:47:39;;;;;;;1.00;0.90;;;;;;;2.55;94.08;96896.22;5053527;28;20210;-56
2022/04/10 00:50:08;;;;;;;0.90;0.90;;;;;;;2.50;94.76;96888.66;5050422;28;20528;-55
2022/04/10 00:52:35;;;;;;;0.80;0.80;;;;;;;2.62;94.44;96889.75;5049962;28;20203;-55
2022/04/10 00:55:02;;;;;;;0.90;0.70;;;;;;;2.54;95.05;96878.91;5051627;28;20202;-55
2022/04/10 00:57:28;;;;;;;0.97;0.97;;;;;;;2.51;95.61;96879.06;5046094;28;20798;-55
2022/04/10 00:59:56;;;;;;;1.13;1.03;;;;;;;2.56;95.27;96878.78;5047472;28;20221;-55
2022/04/10 01:02:23;;;;;;;0.70;0.70;;;;;;;2.58;95.94;96885.63;5046505;28;20210;-55
2022/04/10 01:04:49;;;;;;;0.80;0.80;;;;;;;2.69;95.05;96883.25;5047259;28;20622;-54
2022/04/10 01:07:18;;;;;;;1.00;1.00;;;;;;;2.64;95.75;96885.25;5044907;28;20201;-54
2022/04/10 01:09:45;;;;;;;0.90;0.90;;;;;;;2.55;95.62;96879.75;5042823;28;20214;-54
2022/04/10 01:12:12;;;;;;;0.83;0.83;;;;;;;2.60;96.06;96878.53;5042394;28;20212;-54
2022/04/10 01:14:40;;;;;;;1.00;1.00;;;;;;;2.69;96.58;96888.47;5038586;28;20626;-56
2022/04/10 01:17:09;;;;;;;1.13;1.13;;;;;;;2.62;96.90;96886.28;5042118;28;20234;-55
2022/04/10 01:19:38;;;;;;;1.10;1.10;;;;;;;2.62;96.34;96889.75;5043242;28;20305;-54
2022/04/10 01:22:06;;;;;;;1.37;1.27;;;;;;;2.72;97.29;96887.44;5042284;28;20210;-55
2022/04/10 01:24:35;;;;;;;1.00;1.00;;;;;;;2.72;96.77;96888.28;5042441;28;20218;-56
2022/04/10 01:27:02;;;;;;;1.00;1.00;;;;;;;2.69;96.61;96896.28;5042608;28;20245;-56
2022/04/10 01:29:29;;;;;;;1.10;1.10;;;;;;;2.73;97.73;96895.16;5042544;28;20697;-55
2022/04/10 01:31:56;;;;;;;1.27;1.27;;;;;;;2.72;96.79;96898.72;5043248;28;20217;-55
2022/04/10 01:34:23;;;;;;;1.53;1.43;;;;;;;2.70;96.59;96890.13;5042641;28;20646;-55
2022/04/10 01:36:50;;;;;;;1.50;1.20;;;;;;;2.72;96.24;96888.28;5041976;28;20650;-55
2022/04/10 01:39:16;;;;;;;1.53;1.47;;;;;;;2.73;96.98;96894.34;5040113;28;20238;-57
2022/04/10 01:41:46;;;;;;;1.40;1.30;;;;;;;2.84;96.44;96891.91;5040590;28;20229;-55
2022/04/10 01:44:13;;;;;;;1.23;1.23;;;;;;;2.80;97.40;96896.47;5041905;28;20219;-56
2022/04/10 01:46:39;;;;;;;1.53;1.43;;;;;;;2.81;97.21;96900.78;5041669;28;20652;-54
2022/04/10 01:49:06;;;;;;;1.87;1.77;;;;;;;2.74;97.10;96899.47;5041582;28;20268;-56
2022/04/10 01:51:33;;;;;;;1.53;1.47;;;;;;;2.72;96.22;96893.50;5042515;28;20206;-55
2022/04/10 01:54:00;;;;;;;1.63;1.53;;;;;;;2.80;96.78;96896.47;5041877;28;20217;-54
2022/04/10 01:56:29;;;;;;;1.73;1.70;;;;;;;2.78;97.30;96900.13;5042740;28;20210;-55
2022/04/10 01:58:56;;;;;;;1.37;1.37;;;;;;;2.77;96.56;96896.66;5042226;28;20222;-55
2022/04/10 02:01:24;;;;;;;1.43;1.43;;;;;;;2.77;96.33;96891.44;5038348;28;20207;-56
2022/04/10 02:03:51;;;;;;;1.50;1.40;;;;;;;2.75;98.13;96887.25;5041988;28;20207;-56
2022/04/10 02:06:18;;;;;;;1.70;1.60;;;;;;;2.76;96.55;96891.56;5042630;28;20231;-54
2022/04/10 02:08:44;;;;;;;1.40;1.40;;;;;;;2.76;98.34;96888.94;5041699;28;20633;-56
2022/04/10 02:11:12;;;;;;;2.23;1.97;;;;;;;2.74;97.32;96891.63;5042086;28;20210;-56
2022/04/10 02:13:38;;;;;;;1.50;1.50;;;;;;;2.77;97.58;96886.22;5041434;28;20229;-56
2022/04/10 02:16:08;;;;;;;1.87;1.77;;;;;;;2.81;98.18;96892.09;5041897;28;20202;-56
2022/04/10 02:18:35;;;;;;;2.67;2.47;;;;;;;2.79;97.33;96881.75;5042231;28;20561;-55
2022/04/10 02:21:01;;;;;;;3.03;2.83;;;;;;;2.94;96.70;96888.69;5036772;28;20208;-56
2022/04/10 02:23:27;;;;;;;2.63;2.43;;;;;;;2.95;96.75;96890.38;5041694;28;20213;-56
2022/04/10 02:25:54;;;;;;;2.90;2.63;;;;;;;2.97;95.52;96888.53;5042047;28;20241;-55
2022/04/10 02:28:20;;;;;;;3.57;2.70;;;;;;;2.94;95.27;96888.69;5042102;28;20515;-56
2022/04/10 02:30:47;;;;;;;2.50;2.40;;;;;;;2.96;95.99;96894.66;5041772;28;20647;-55
2022/04/10 02:33:15;;;;;;;2.60;2.50;;;;;;;2.97;95.62;96883.28;5040957;28;20238;-56
2022/04/10 02:35:41;;;;;;;3.00;2.80;;;;;;;3.08;94.42;96887.03;5041542;28;20630;-55
2022/04/10 02:38:09;;;;;;;2.77;2.57;;;;;;;3.16;93.74;96883.03;5036300;28;20230;-56
2022/04/10 02:40:35;;;;;;;3.10;3.00;;;;;;;3.16;94.20;96893.47;5042618;28;20204;-56
2022/04/10 02:43:02;;;;;;;3.20;3.00;;;;;;;3.15;94.62;96891.81;5045121;28;20202;-56
2022/04/10 02:45:28;;;;;;;3.47;3.27;;;;;;;3.25;93.91;96889.47;5045515;28;20210;-56
2022/04/10 02:47:55;;;;;;;3.40;3.20;;;;;;;3.31;93.75;96889.94;5045041;28;20210;-56
2022/04/10 02:50:24;;;;;;;3.50;3.30;;;;;;;3.34;94.23;96892.38;5045434;28;20582;-56
2022/04/10 02:52:51;;;;;;;3.27;3.07;;;;;;;3.36;94.51;96898.34;5045577;28;20235;-56
2022/04/10 02:55:18;;;;;;;3.77;3.57;;;;;;;3.41;94.39;96893.69;5040422;28;20217;-57
2022/04/10 02:57:44;;;;;;;3.53;3.33;;;;;;;3.43;94.60;96896.22;5076685;28;20224;-54
2022/04/10 03:00:12;;;;;;;3.03;2.83;;;;;;;3.47;94.24;96887.25;5066489;28;20199;-56
2022/04/10 03:02:39;;;;;;;3.50;3.30;;;;;;;3.55;92.91;96890.22;5068805;28;20189;-56
2022/04/10 03:05:06;;;;;;;4.07;3.77;;;;;;;3.55;93.40;96889.38;5047086;28;20216;-55
2022/04/10 03:07:34;;;;;;;3.83;3.40;;;;;;;3.52;93.46;96890.41;5046650;28;20210;-56
2022/04/10 03:10:01;;;;;;;3.70;3.40;;;;;;;3.56;93.02;96891.91;5046096;28;20215;-56
2022/04/10 03:12:27;;;;;;;3.70;3.40;;;;;;;3.52;93.40;96887.78;5044634;28;20212;-54
2022/04/10 03:14:53;;;;;;;3.70;3.47;;;;;;;3.53;92.77;96892.09;5044905;28;20210;-56
2022/04/10 03:17:22;;;;;;;3.50;3.20;;;;;;;3.55;92.58;96900.66;5044583;28;20210;-56
2022/04/10 03:19:49;;;;;;;3.60;3.30;;;;;;;3.52;92.62;96890.41;5038963;28;20295;-56
2022/04/10 03:22:15;;;;;;;3.87;3.57;;;;;;;3.49;92.92;96890.59;5045761;28;20198;-57
2022/04/10 03:24:43;;;;;;;3.63;3.30;;;;;;;3.54;91.70;96888.56;5044120;28;20196;-56
2022/04/10 03:27:10;;;;;;;3.40;3.20;;;;;;;3.53;91.90;96904.31;5043718;28;20282;-55
2022/04/10 03:29:37;;;;;;;3.40;3.20;;;;;;;3.58;91.54;96907.50;5044744;28;20210;-56
2022/04/10 03:32:03;;;;;;;3.50;3.20;;;;;;;3.48;91.92;96909.81;5044871;28;20538;-55
2022/04/10 03:34:30;;;;;;;3.40;3.17;;;;;;;3.51;91.70;96909.63;5044894;28;20228;-56
2022/04/10 03:36:56;;;;;;;3.70;3.20;;;;;;;3.54;92.29;96919.94;5044348;28;20214;-55
2022/04/10 03:39:23;;;;;;;3.80;3.50;;;;;;;3.56;92.08;96923.28;5045106;28;20556;-55
2022/04/10 03:41:52;;;;;;;3.83;3.07;;;;;;;3.54;92.53;96927.78;5038941;28;20818;-55
2022/04/10 03:44:18;;;;;;;3.67;3.40;;;;;;;3.53;93.33;96925.25;5044582;28;20209;-55
2022/04/10 03:46:45;;;;;;;3.47;3.27;;;;;;;3.51;93.34;96928.78;5046225;28;20531;-55
2022/04/10 03:49:11;;;;;;;3.37;3.10;;;;;;;3.50;93.75;96929.72;5050717;28;20230;-56
2022/04/10 03:51:38;;;;;;;3.20;3.00;;;;;;;3.51;94.74;96935.78;5065446;28;20186;-56
2022/04/10 03:54:04;;;;;;;3.37;3.17;;;;;;;3.55;94.94;96937.28;5071871;28;20196;-56
2022/04/10 03:56:31;;;;;;;3.57;3.33;;;;;;;3.58;94.68;96938.88;5054539;28;20214;-55
2022/04/10 03:58:58;;;;;;;3.33;3.13;;;;;;;3.63;94.11;96940.28;5041692;28;20231;-58
2022/04/10 04:01:25;;;;;;;4.73;3.30;;;;;;;3.61;95.06;96942.16;5042012;28;20202;-55
2022/04/10 04:03:51;;;;;;;3.27;3.07;;;;;;;3.64;94.26;96941.97;5044003;28;20210;-57
2022/04/10 04:06:18;;;;;;;3.73;3.47;;;;;;;3.61;94.18;96950.00;5048700;28;20218;-56
2022/04/10 04:08:44;;;;;;;3.53;3.33;;;;;;;3.64;94.49;96947.19;5064815;28;20517;-56
2022/04/10 04:11:11;;;;;;;3.70;3.43;;;;;;;3.70;94.05;96945.97;5061775;28;20221;-56
2022/04/10 04:13:38;;;;;;;3.77;3.47;;;;;;;3.73;94.19;96948.38;5046915;28;20204;-56
2022/04/10 04:16:06;;;;;;;3.80;3.50;;;;;;;3.76;93.99;96948.19;5064683;28;20241;-56
2022/04/10 04:18:33;;;;;;;3.60;3.40;;;;;;;3.84;93.02;96938.97;5063537;28;20249;-57
2022/04/10 04:20:59;;;;;;;4.03;3.73;;;;;;;3.82;91.88;96938.22;5052988;28;20272;-56
2022/04/10 04:23:26;;;;;;;4.20;3.97;;;;;;;3.78;91.87;96952.41;5043245;28;20201;-56
2022/04/10 04:25:53;;;;;;;4.17;3.87;;;;;;;3.80;91.01;96958.38;5044146;28;20207;-55
2022/04/10 04:28:19;;;;;;;3.90;3.60;;;;;;;3.75;90.83;96960.47;5042487;28;20191;-55
2022/04/10 04:30:46;;;;;;;3.83;3.57;;;;;;;3.56;91.98;96954.66;5043837;28;20199;-56
2022/04/10 04:33:13;;;;;;;3.97;3.67;;;;;;;3.48;93.12;96962.09;5043392;28;20284;-56
2022/04/10 04:35:40;;;;;;;3.60;3.40;;;;;;;3.43;93.93;96969.41;5036870;28;20209;-57
2022/04/10 04:38:06;;;;;;;3.47;3.27;;;;;;;3.36;94.77;96962.84;5042943;28;20221;-56
2022/04/10 04:40:33;;;;;;;4.17;3.63;;;;;;;3.35;94.59;96972.47;5043744;28;20203;-56
2022/04/10 04:42:59;;;;;;;3.70;3.40;;;;;;;3.28;94.39;96970.31;5042058;28;20245;-56
2022/04/10 04:45:26;;;;;;;4.07;3.50;;;;;;;3.21;94.59;96969.84;5042861;28;20209;-56
2022/04/10 04:47:52;;;;;;;4.00;3.70;;;;;;;3.07;96.19;96967.19;5043295;28;20202;-56
2022/04/10 04:50:20;;;;;;;3.70;3.50;;;;;;;3.04;96.22;96966.53;5043257;28;20208;-56
2022/04/10 04:52:46;;;;;;;4.17;3.93;;;;;;;2.97;95.80;96956.44;5042418;28;20197;-56
2022/04/10 04:55:13;;;;;;;4.30;4.00;;;;;;;2.90;96.41;96964.72;5043379;28;20221;-55
2022/04/10 04:57:39;;;;;;;4.10;3.80;;;;;;;2.85;97.36;96970.19;5043032;28;20209;-56
2022/04/10 05:00:07;;;;;;;3.90;3.60;;;;;;;2.85;97.27;96971.97;5035795;28;20233;-57
2022/04/10 05:02:33;;;;;;;3.70;3.50;;;;;;;2.86;97.06;96963.22;5043600;28;20210;-56
2022/04/10 05:05:00;;;;;;;4.30;3.90;;;;;;;2.86;96.75;96963.22;5043056;28;20205;-56
2022/04/10 05:07:27;;;;;;;3.80;3.60;;;;;;;2.82;96.19;96977.38;5042541;28;21372;-56
2022/04/10 05:09:54;;;;;;;3.90;3.60;;;;;;;2.78;96.61;96989.75;5042560;28;20637;-56
2022/04/10 05:12:20;;;;;;;3.80;3.53;;;;;;;2.84;96.57;96991.16;5042897;28;20213;-56
2022/04/10 05:14:47;;;;;;;4.30;3.90;;;;;;;2.85;96.08;96998.06;5043035;28;20209;-56
2022/04/10 05:17:13;;;;;;;4.33;4.03;;;;;;;2.94;95.72;97001.00;5046622;28;20200;-57
2022/04/10 05:19:40;;;;;;;4.20;3.90;;;;;;;2.98;96.03;97005.13;5051845;28;20663;-56
2022/04/10 05:22:06;;;;;;;4.20;3.80;;;;;;;3.01;96.48;97004.94;5050796;28;20217;-56
2022/04/10 05:24:34;;;;;;;7.30;5.77;;;;;;;3.00;96.27;96999.81;5064980;28;20198;-56
2022/04/10 05:27:00;;;;;;;5.00;4.60;;;;;;;3.01;97.42;97004.94;5055726;28;20230;-57
2022/04/10 05:29:27;;;;;;;5.17;4.63;;;;;;;2.97;97.12;97003.47;5048642;28;20209;-57
2022/04/10 05:31:53;;;;;;;4.63;4.33;;;;;;;3.07;96.37;97008.16;5048877;28;20209;-56
2022/04/10 05:34:20;;;;;;;4.10;3.80;;;;;;;3.19;96.01;97017.91;5043399;28;20225;-56
2022/04/10 05:36:46;;;;;;;4.07;3.77;;;;;;;3.21;95.41;97016.03;5042123;28;20206;-56
2022/04/10 05:39:13;;;;;;;4.47;4.07;;;;;;;3.27;95.33;97020.88;5039235;28;20237;-56
2022/04/10 05:41:40;;;;;;;4.53;4.13;;;;;;;3.30;95.70;97018.09;5037607;28;20205;-56
2022/04/10 05:44:07;;;;;;;4.43;4.00;;;;;;;3.35;95.93;97031.75;5042877;28;20195;-56
2022/04/10 05:46:38;;;;;;;4.80;4.50;;;;;;;3.61;96.65;97025.84;5042675;28;20211;-56
2022/04/10 05:49:05;;;;;;;4.40;4.10;;;;;;;4.02;94.22;97031.16;5042056;28;20290;-56
2022/04/10 05:51:31;;;;;;;4.20;3.90;;;;;;;4.24;93.26;97033.31;5042256;28;20209;-56
2022/04/10 05:53:57;;;;;;;4.57;4.27;;;;;;;4.93;92.12;97033.25;5042574;28;20199;-55
2022/04/10 05:56:24;;;;;;;4.50;4.20;;;;;;;5.37;87.16;97030.34;5042357;28;20211;-56
2022/04/10 05:58:52;;;;;;;4.67;4.27;;;;;;;6.27;81.57;97038.19;5034651;28;20232;-56
2022/04/10 06:01:18;;;;;;;4.40;4.03;;;;;;;7.15;81.16;97043.19;5041669;28;20298;-56
2022/04/10 06:03:44;;;;;;;4.20;3.90;;;;;;;7.51;76.87;97039.59;5042064;28;20199;-56
2022/04/10 06:06:12;;;;;;;4.43;4.20;;;;;;;8.49;70.26;97039.09;5042106;28;20227;-56
2022/04/10 06:08:39;;;;;;;4.30;4.00;;;;;;;9.24;67.54;97040.03;5041940;28;20200;-56
2022/04/10 06:11:05;;;;;;;3.90;3.60;;;;;;;9.12;67.39;97040.16;5042257;28;20208;-56
2022/04/10 06:13:31;;;;;;;4.27;3.87;;;;;;;9.93;64.57;97041.25;5041982;28;20195;-56
2022/04/10 06:15:59;;;;;;;4.03;3.73;;;;;;;10.46;64.17;97051.72;5044990;28;20211;-56
2022/04/10 06:18:26;;;;;;;3.53;3.23;;;;;;;10.28;60.87;97046.22;5046492;28;20211;-55
2022/04/10 06:20:52;;;;;;;3.23;2.93;;;;;;;10.68;62.14;97053.34;5056014;28;20214;-56
2022/04/10 06:23:21;;;;;;;3.37;3.07;;;;;;;10.72;62.18;97055.59;5036984;28;20871;-55
2022/04/10 06:25:48;;;;;;;3.10;2.90;;;;;;;10.72;60.36;97055.59;5045766;28;20207;-57
2022/04/10 06:28:15;;;;;;;3.33;3.13;;;;;;;10.46;62.32;97062.28;5045520;28;20200;-55
2022/04/10 06:30:43;;;;;;;2.73;2.63;;;;;;;10.34;59.85;97060.72;5046651;28;20195;-56
2022/04/10 06:33:11;;;;;;;3.53;3.23;;;;;;;9.71;63.55;97067.78;5046141;28;20289;-56
2022/04/10 06:35:39;;;;;;;2.77;2.67;;;;;;;9.83;64.23;97071.19;5045755;28;20207;-55
2022/04/10 06:38:05;;;;;;;3.30;3.10;;;;;;;9.69;65.33;97071.50;5045479;28;20784;-58
2022/04/10 06:40:32;;;;;;;2.90;2.70;;;;;;;9.94;66.64;97066.72;5048239;28;20234;-57
2022/04/10 06:42:59;;;;;;;2.53;2.43;;;;;;;10.16;62.29;97068.41;5047069;28;20207;-58
2022/04/10 06:45:25;;;;;;;2.47;2.37;;;;;;;10.26;61.25;97071.09;5036936;28;20195;-57
2022/04/10 06:47:52;;;;;;;2.13;2.03;;;;;;;10.45;60.78;97068.56;5045091;28;20539;-58
2022/04/10 06:50:20;;;;;;;2.90;2.70;;;;;;;10.40;64.51;97066.31;5045603;28;21424;-59
2022/04/10 06:52:46;;;;;;;2.50;2.30;;;;;;;10.63;62.78;97077.53;5045977;28;20214;-58
2022/04/10 06:55:13;;;;;;;2.20;2.10;;;;;;;10.60;62.83;97069.88;5045824;28;20559;-57
2022/04/10 06:57:39;;;;;;;1.83;1.73;;;;;;;10.47;62.22;97072.75;5045539;28;20203;-58
2022/04/10 07:00:08;;;;;;;2.20;2.10;;;;;;;11.35;56.50;97074.69;5047447;28;20318;-59
2022/04/10 07:02:37;;;;;;;1.93;1.83;;;;;;;11.62;56.17;97072.19;5042859;28;20215;-61
2022/04/10 07:05:05;;;;;;;2.03;1.93;;;;;;;11.48;57.98;97076.09;5043030;28;20265;-58
2022/04/10 07:07:33;;;;;;;1.73;1.63;;;;;;;11.55;55.98;97075.56;5047401;28;20226;-58
2022/04/10 07:09:59;;;;;;;2.00;1.90;;;;;;;10.86;58.94;97079.03;5046533;28;20195;-57
2022/04/10 07:12:26;;;;;;;1.93;1.83;;;;;;;10.72;57.33;97068.81;5045728;28;20594;-59
2022/04/10 07:14:53;;;;;;;1.80;1.70;;;;;;;10.88;57.90;97077.09;5045871;28;20507;-59
2022/04/10 07:17:19;;;;;;;1.87;1.77;;;;;;;10.98;56.56;97072.66;5045453;28;20214;-58
2022/04/10 07:19:46;;;;;;;1.80;1.70;;;;;;;10.98;56.23;97072.66;5047013;28;20223;-58
2022/04/10 07:24:58;;;;;;;1.90;1.80;;;;;;;11.38;57.02;97069.13;5045525;28;20219;-58
2022/04/10 07:27:24;;;;;;;2.00;1.90;;;;;;;11.35;56.14;97070.25;5045979;28;20922;-58
2022/04/10 07:29:51;;;;;;;2.13;2.03;;;;;;;11.27;56.57;97078.03;5047460;28;20218;-58
2022/04/10 07:32:17;;;;;;;2.03;1.93;;;;;;;10.82;57.19;97077.63;5045271;28;20195;-57
2022/04/10 07:34:44;;;;;;;2.10;2.00;;;;;;;11.30;54.83;97077.75;5046632;28;20210;-59
2022/04/10 07:37:10;;;;;;;2.07;1.97;;;;;;;11.27;53.83;97075.38;5047473;28;20199;-58
2022/04/10 07:39:36;;;;;;;2.33;2.13;;;;;;;10.75;57.58;97073.00;5051883;28;20231;-59
2022/04/10 07:42:09;;;;;;;2.30;1.97;;;;;;;11.06;58.05;97074.63;5050170;28;20294;-59
2022/04/10 07:44:35;;;;;;;2.07;1.97;;;;;;;10.90;59.30;97080.44;5055779;28;20199;-61
2022/04/10 07:49:49;;;;;;;2.10;2.00;;;;;;;10.16;57.71;97083.44;5061060;28;20265;-58
2022/04/10 07:52:16;;;;;;;2.07;1.97;;;;;;;10.16;59.06;97088.72;5057366;28;20214;-58
2022/04/10 07:54:42;;;;;;;2.13;2.03;;;;;;;10.47;58.68;97083.34;5053252;28;20196;-58
2022/04/10 07:57:10;;;;;;;2.50;2.30;;;;;;;10.32;61.03;97083.78;5054680;28;20200;-58
2022/04/10 07:59:37;;;;;;;2.07;1.97;;;;;;;10.36;62.51;97080.75;5054637;28;20220;-58
2022/04/10 08:02:04;;;;;;;3.37;2.10;;;;;;;9.67;60.06;97090.13;5052842;28;20203;-58
2022/04/10 08:04:30;;;;;;;2.20;2.00;;;;;;;9.22;60.61;97080.69;5049086;28;20218;-59
2022/04/10 08:06:57;;;;;;;2.73;2.40;;;;;;;9.37;61.95;97084.72;5046476;28;20204;-61
2022/04/10 08:09:23;;;;;;;2.30;2.10;;;;;;;9.16;59.17;97086.47;5041111;28;20207;-59
2022/04/10 08:11:50;;;;;;;2.33;2.23;;;;;;;8.93;61.28;97083.84;5049037;28;20203;-59
2022/04/10 08:14:18;;;;;;;2.40;2.23;;;;;;;9.10;59.76;97092.25;5046068;28;20268;-61
2022/04/10 08:16:44;;;;;;;2.37;2.17;;;;;;;9.28;60.40;97088.94;5045075;28;20214;-58
2022/04/10 08:19:11;;;;;;;2.33;2.13;;;;;;;9.44;59.70;97092.03;5043945;28;20208;-59
2022/04/10 08:21:37;;;;;;;2.20;2.00;;;;;;;9.74;60.08;97093.13;5043531;28;20219;-58
2022/04/10 08:24:04;;;;;;;2.43;2.30;;;;;;;10.22;59.82;97098.75;5043204;28;20211;-59
2022/04/10 08:26:32;;;;;;;2.03;1.93;;;;;;;10.38;57.25;97099.16;5037084;28;20234;-58
2022/04/10 08:28:58;;;;;;;2.30;2.10;;;;;;;10.62;56.59;97104.97;5041631;28;20203;-57
2022/04/10 08:31:28;;;;;;;3.33;2.00;;;;;;;10.76;56.41;97099.34;5044362;28;20192;-57
2022/04/10 08:33:58;;;;;;;2.57;2.10;;;;;;;11.41;55.06;97104.09;5045317;28;20293;-57
2022/04/10 08:36:25;;;;;;;3.13;2.17;;;;;;;11.93;56.91;97104.75;5043122;28;20543;-57
2022/04/10 08:38:51;;;;;;;3.63;2.20;;;;;;;12.21;56.35;97108.34;5043319;28;20211;-56
2022/04/10 08:41:19;;;;;;;1.70;1.60;;;;;;;12.66;54.69;97101.41;5043224;28;20220;-56
2022/04/10 08:43:46;;;;;;;2.70;1.73;;;;;;;12.66;50.34;97109.34;5040200;28;20196;-56
2022/04/10 08:46:14;;;;;;;2.27;2.07;;;;;;;12.90;49.83;97109.69;5036459;28;20273;-58
2022/04/10 08:48:44;;;;;;;2.40;2.20;;;;;;;13.33;50.03;97103.78;5051954;28;20191;-56
2022/04/10 08:51:10;;;;;;;2.30;2.17;;;;;;;13.14;48.66;97113.69;5045572;28;20210;-56
2022/04/10 08:53:37;;;;;;;5.43;2.30;;;;;;;12.92;49.56;97112.19;5044664;28;20202;-58
2022/04/10 08:56:04;;;;;;;2.53;2.10;;;;;;;13.01;48.89;97126.41;5042984;28;20209;-57
2022/04/10 08:58:31;;;;;;;2.03;1.90;;;;;;;12.66;48.49;97125.28;5043642;28;20701;-57
2022/04/10 09:00:58;;;;;;;2.63;2.30;;;;;;;12.84;48.58;97133.31;5043139;28;20224;-56
2022/04/10 09:03:24;;;;;;;2.87;1.93;;;;;;;12.75;49.86;97127.06;5051610;28;20207;-59
2022/04/10 09:06:03;;;;;;;2.13;1.90;;;;;;;12.24;48.03;97131.94;5043763;28;20207;-58
2022/04/10 09:08:29;;;;;;;2.10;2.00;;;;;;;11.83;49.44;97125.13;5043398;28;20455;-56
2022/04/10 09:10:58;;;;;;;3.47;2.40;;;;;;;11.68;47.66;97124.66;5031831;28;20207;-57
2022/04/10 09:13:32;;;;;;;2.37;2.17;;;;;;;11.00;48.92;97122.81;5049102;28;20206;-57
2022/04/10 09:16:13;;;;;;;2.10;2.00;;;;;;;10.92;51.69;97122.63;5051355;28;20580;-58
2022/04/10 09:18:52;;;;;;;2.33;2.13;;;;;;;10.72;51.73;97124.38;5046761;28;20205;-62
2022/04/10 09:21:22;;;;;;;2.30;2.13;;;;;;;10.82;50.71;97129.69;5042319;28;20230;-62
2022/04/10 09:23:53;;;;;;;3.43;2.10;;;;;;;10.42;49.25;97122.53;5042603;28;20213;-63
2022/04/10 09:26:20;;;;;;;2.33;2.10;;;;;;;10.23;50.02;97129.53;5042646;28;20235;-62
2022/04/10 09:28:47;;;;;;;3.03;2.07;;;;;;;9.71;48.44;97120.59;5043252;28;20541;-64
2022/04/10 09:31:31;;;;;;;2.23;2.00;;;;;;;9.54;52.17;97120.28;5034082;28;20549;-64
2022/04/10 09:33:59;;;;;;;3.40;1.83;;;;;;;9.47;52.33;97127.88;5042329;28;20203;-66
2022/04/10 09:36:34;;;;;;;3.53;2.20;;;;;;;9.06;51.07;97128.56;5042545;28;20791;-62
2022/04/10 09:39:01;;;;;;;2.23;2.03;;;;;;;9.23;53.48;97122.78;5042692;28;20191;-65
2022/04/10 09:41:28;;;;;;;1.93;1.73;;;;;;;9.14;53.16;97125.34;5042861;28;20227;-65
2022/04/10 09:43:59;;;;;;;2.20;2.00;;;;;;;9.05;50.71;97115.50;5042485;28;20203;-65
2022/04/10 09:46:26;;;;;;;2.30;2.10;;;;;;;9.16;53.60;97124.25;5042440;28;20195;-63
2022/04/10 09:48:52;;;;;;;2.13;2.00;;;;;;;9.17;54.57;97114.53;5043942;28;20213;-65
2022/04/10 09:51:19;;;;;;;1.90;1.80;;;;;;;9.29;52.87;97113.53;5030626;28;20544;-63
2022/04/10 09:56:42;;;;;;;2.00;1.90;;;;;;;9.36;52.98;97109.44;5109405;27;20554;-63
2022/04/10 09:59:11;;;;;;;2.10;2.00;;;;;;;10.32;50.07;97105.78;5108900;28;20196;-64
2022/04/10 10:01:37;;;;;;;2.50;2.20;;;;;;;11.20;50.88;97105.16;5108886;28;20543;-58
2022/04/10 10:04:07;;;;;;;2.30;2.10;;;;;;;11.35;50.25;97095.88;5111279;28;20523;-58
2022/04/10 10:06:37;;;;;;;3.83;2.50;;;;;;;10.95;48.68;97104.69;5111068;28;20213;-59
2022/04/10 10:09:03;;;;;;;2.50;2.00;;;;;;;10.82;48.66;97109.38;5089070;28;20217;-60
2022/04/10 10:11:30;;;;;;;3.20;2.13;;;;;;;11.60;52.12;97098.00;5110135;28;20209;-61
2022/04/10 10:13:58;;;;;;;2.07;1.97;;;;;;;12.35;50.07;97097.28;5128737;28;20177;-64
2022/04/10 10:16:25;;;;;;;2.30;1.77;;;;;;;12.52;44.76;97095.72;5132185;28;20197;-59
2022/04/10 10:18:52;;;;;;;3.07;2.33;;;;;;;12.84;44.35;97094.34;5135394;28;20189;-57
2022/04/10 10:21:21;;;;;;;2.27;1.77;;;;;;;13.38;46.98;97095.38;5116350;28;20209;-59
2022/04/10 10:23:49;;;;;;;2.30;2.20;;;;;;;13.57;46.78;97087.25;5110116;28;20660;-60
2022/04/10 10:26:32;;;;;;;2.60;2.27;;;;;;;13.68;46.23;97089.69;5109988;28;20204;-60
2022/04/10 10:29:10;;;;;;;2.53;2.33;;;;;;;13.17;47.92;97089.47;5109028;28;20224;-61
2022/04/10 10:31:48;;;;;;;2.43;2.23;;;;;;;12.72;43.80;97084.88;5109239;28;20197;-60
2022/04/10 10:34:15;;;;;;;3.73;2.13;;;;;;;12.80;45.54;97087.66;5086062;28;20206;-59
2022/04/10 10:36:41;;;;;;;2.10;1.90;;;;;;;13.56;45.32;97079.44;5109037;28;20212;-60
2022/04/10 10:39:08;;;;;;;1.70;1.60;;;;;;;13.65;41.77;97078.53;5108668;28;20553;-60
2022/04/10 10:41:40;;;;;;;3.00;1.80;;;;;;;12.87;41.33;97078.13;5108124;28;20225;-59
2022/04/10 10:44:18;;;;;;;2.00;1.80;;;;;;;12.49;42.15;97067.66;5109393;28;20225;-59
2022/04/10 10:47:00;;;;;;;2.13;1.93;;;;;;;12.09;42.48;97069.69;5097341;28;20208;-60
2022/04/10 10:49:28;;;;;;;1.90;1.70;;;;;;;12.06;44.53;97069.97;5108604;28;20700;-60
2022/04/10 10:51:57;;;;;;;2.00;1.90;;;;;;;12.49;43.62;97067.66;5108495;28;20514;-60
2022/04/10 10:54:31;;;;;;;2.23;2.03;;;;;;;12.11;42.44;97070.41;5095984;28;20719;-59
2022/04/10 10:57:00;;;;;;;7.93;4.43;;;;;;;11.68;42.79;97069.00;5099297;28;20184;-60
2022/04/10 10:59:32;;;;;;;4.00;2.30;;;;;;;11.71;45.81;97071.41;5108654;28;20221;-59
2022/04/10 11:02:04;;;;;;;3.07;2.20;;;;;;;11.84;41.89;97066.66;5108497;28;20201;-60
2022/04/10 11:04:34;;;;;;;2.03;1.60;;;;;;;11.42;40.33;97055.47;5108468;28;20215;-59
2022/04/10 11:07:11;;;;;;;2.80;2.23;;;;;;;11.59;40.02;97056.59;5100318;28;20209;-59
2022/04/10 11:09:48;;;;;;;6.47;2.07;;;;;;;11.85;41.21;97056.91;5096402;28;20201;-59
2022/04/10 11:12:15;;;;;;;1.60;1.50;;;;;;;12.28;43.77;97059.06;5095720;28;20236;-60
2022/04/10 11:14:48;;;;;;;1.73;1.63;;;;;;;12.14;38.67;97060.34;5055230;28;20210;-59
2022/04/10 11:17:16;;;;;;;1.80;1.70;;;;;;;11.60;38.29;97060.91;5095011;28;20236;-60
2022/04/10 11:19:44;;;;;;;1.73;1.60;;;;;;;11.47;41.75;97055.91;5094469;28;20286;-60
2022/04/10 11:22:14;;;;;;;2.07;1.70;;;;;;;11.77;40.42;97052.28;5094886;28;20230;-59
2022/04/10 11:24:43;;;;;;;2.03;1.83;;;;;;;11.86;39.90;97050.63;5096740;28;20201;-59
2022/04/10 11:27:14;;;;;;;1.83;1.73;;;;;;;11.86;40.84;97054.13;5084287;28;20205;-59
2022/04/10 11:29:58;;;;;;;3.63;2.00;;;;;;;11.98;41.01;97047.66;5093950;28;21564;-58
2022/04/10 11:32:25;;;;;;;2.00;1.90;;;;;;;11.54;41.10;97037.66;5069316;28;20216;-59
2022/04/10 11:34:59;;;;;;;3.07;1.90;;;;;;;11.19;42.15;97032.88;5093910;28;20206;-58
2022/04/10 11:37:25;;;;;;;2.73;2.20;;;;;;;11.23;42.62;97036.09;5084074;28;20307;-59
2022/04/10 11:39:56;;;;;;;7.47;2.60;;;;;;;11.41;43.60;97037.06;5093816;28;20630;-58
2022/04/10 11:42:23;;;;;;;2.43;2.20;;;;;;;11.56;45.37;97042.78;5094072;28;20202;-58
2022/04/10 11:44:50;;;;;;;2.13;1.87;;;;;;;11.25;42.84;97037.63;5099676;28;20182;-58
2022/04/10 11:47:19;;;;;;;2.30;2.10;;;;;;;11.16;44.63;97035.78;5116463;28;20194;-58
2022/04/10 11:49:52;;;;;;;1.80;1.70;;;;;;;11.13;45.84;97036.06;5094006;28;20194;-59